Oakdale, NY (11769)

9:09 PM EDT on July 07, 2015 (GMT -0400)
Oakdale | | Change Station
CLOSE
Current Station
Personal Weather Station
Location: Oakdale, NY
Elevation: 10 ft
Nearby Weather Stations

Elev 10 ft 40.73 °N, 73.13 °W | Updated 5 minutes ago

Overcast
Overcast
75.4 °F
Feels Like 74 °F
N
9.4
Wind Variable Wind from SW

Today
High -- | Low -- °F
--% Chance of Precip.
Yesterday
High -- | Low -- °F
Precip. -- in
5:28 AM 8:26 PM
Waning Gibbous, 59% visible
Pressure 29.96 in
Visibility 10.0 miles
Clouds Few 900 ft
Few 4800 ft
Mostly Cloudy 10000 ft
Mostly Cloudy 26000 ft
Heat Index 74 °F
Dew Point 74 °F
Humidity 97%
Rainfall 0.00 in
Snow Depth Not available.
UV 0 out of 12
Pollen 2.90 out of 12
Air Quality Not available.
Flu Activity Not available.
METAR KISP 080056Z 21009KT 10SM FEW009 FEW048 BKN100 BKN260 24/22 A2997 RMK AO2 SLP146 T02440217

More Conditions Fewer Conditions

Pressure 29.96 in
Visibility 10.0 miles
Clouds Few 900 ft
Few 4800 ft
Mostly Cloudy 10000 ft
Mostly Cloudy 26000 ft
Heat Index 74 °F
Dew Point 74 °F
Humidity 97%
Rainfall 0.00 in
Snow Depth Not available.
UV 0 out of 12
Pollen 2.90 out of 12
Air Quality Not available.
Flu Activity Not available.
METAR KISP 080056Z 21009KT 10SM FEW009 FEW048 BKN100 BKN260 24/22 A2997 RMK AO2 SLP146 T02440217

More Conditions Fewer Conditions

10-Day Weather Forecast

×

Almanac

Astronomy

Jul. 07, 2015 Rise Set
Actual Time
Civil Twilight
Nautical Twilight
Astronomical Twilight
Moon
Length of Visible Light
Length of Day
Tomorrow will be .
, % of the Moon is Illuminated

Today's Extremes

State Highs State Lows

Community

WunderPhotos

Upload Photos

1,835,985 photos uploaded!

WunderBlogs® & News

Nearby

Air Quality

  Air Quality AQ Index Pollutant
Not available.

Snow Depth

Station Depth Elevation

Earthquake Activity

City Distance Mag. Time & Date
Minimum magnitude displayed is 2.5.

Coastal Water Temperatures

Place Temperature

Stations

Nearby Weather Stations

Station Location Temp. Windchill Dew Point Humidity Wind Precip. Elev Updated Type